sensor_id;sensor_type;location;lat;lon;timestamp;temperature;humidity
3736;DHT22;1883;48.202;16.310;2023-02-28T01:29:06;0.30;66.50
3736;DHT22;1883;48.202;16.310;2023-02-28T01:31:33;0.30;66.50
3736;DHT22;1883;48.202;16.310;2023-02-28T01:34:00;0.20;66.40
3736;DHT22;1883;48.202;16.310;2023-02-28T01:36:28;0.20;66.40
3736;DHT22;1883;48.202;16.310;2023-02-28T01:38:55;0.30;66.40
3736;DHT22;1883;48.202;16.310;2023-02-28T01:41:24;0.30;66.40
3736;DHT22;1883;48.202;16.310;2023-02-28T01:43:55;0.20;66.40
3736;DHT22;1883;48.202;16.310;2023-02-28T01:46:24;0.30;66.30
3736;DHT22;1883;48.202;16.310;2023-02-28T01:48:54;0.30;66.40
3736;DHT22;1883;48.202;16.310;2023-02-28T01:51:26;0.30;66.50
3736;DHT22;1883;48.202;16.310;2023-02-28T01:53:58;0.30;66.50
3736;DHT22;1883;48.202;16.310;2023-02-28T01:56:30;0.30;66.40
3736;DHT22;1883;48.202;16.310;2023-02-28T02:06:48;0.20;66.40
3736;DHT22;1883;48.202;16.310;2023-02-28T02:09:17;0.30;66.40
3736;DHT22;1883;48.202;16.310;2023-02-28T02:11:45;0.30;66.40
3736;DHT22;1883;48.202;16.310;2023-02-28T02:14:40;0.30;66.40
3736;DHT22;1883;48.202;16.310;2023-02-28T02:17:18;0.30;66.40
3736;DHT22;1883;48.202;16.310;2023-02-28T02:23:26;0.40;66.40
3736;DHT22;1883;48.202;16.310;2023-02-28T02:25:58;0.40;66.50
3736;DHT22;1883;48.202;16.310;2023-02-28T02:28:52;0.40;66.40
3736;DHT22;1883;48.202;16.310;2023-02-28T02:31:48;0.40;66.40
3736;DHT22;1883;48.202;16.310;2023-02-28T02:34:38;0.40;66.40
3736;DHT22;1883;48.202;16.310;2023-02-28T02:37:25;0.50;66.40
3736;DHT22;1883;48.202;16.310;2023-02-28T02:40:03;0.40;66.30
3736;DHT22;1883;48.202;16.310;2023-02-28T02:42:39;0.40;66.40
3736;DHT22;1883;48.202;16.310;2023-02-28T02:45:11;0.40;66.40
3736;DHT22;1883;48.202;16.310;2023-02-28T02:47:40;0.30;66.30
3736;DHT22;1883;48.202;16.310;2023-02-28T02:50:13;0.30;66.30
3736;DHT22;1883;48.202;16.310;2023-02-28T02:52:45;0.20;66.20
3736;DHT22;1883;48.202;16.310;2023-02-28T02:55:15;0.10;66.20
3736;DHT22;1883;48.202;16.310;2023-02-28T02:57:48;0.10;66.10
3736;DHT22;1883;48.202;16.310;2023-02-28T03:00:19;0.10;66.10
3736;DHT22;1883;48.202;16.310;2023-02-28T03:02:49;0.10;66.10
3736;DHT22;1883;48.202;16.310;2023-02-28T03:05:21;0.10;65.90
3736;DHT22;1883;48.202;16.310;2023-02-28T03:07:50;0.10;66.00
3736;DHT22;1883;48.202;16.310;2023-02-28T03:20:45;0.10;66.00
3736;DHT22;1883;48.202;16.310;2023-02-28T03:23:21;0.10;65.90
3736;DHT22;1883;48.202;16.310;2023-02-28T03:25:56;0.10;65.90
3736;DHT22;1883;48.202;16.310;2023-02-28T03:28:30;0.00;65.90
3736;DHT22;1883;48.202;16.310;2023-02-28T03:33:38;0.00;65.80
3736;DHT22;1883;48.202;16.310;2023-02-28T03:36:10;-0.10;65.70
3736;DHT22;1883;48.202;16.310;2023-02-28T03:38:41;-0.10;65.70
3736;DHT22;1883;48.202;16.310;2023-02-28T03:41:14;-0.10;65.70
3736;DHT22;1883;48.202;16.310;2023-02-28T03:43:47;-0.10;65.70
3736;DHT22;1883;48.202;16.310;2023-02-28T03:46:18;-0.10;65.60
3736;DHT22;1883;48.202;16.310;2023-02-28T03:48:51;-0.10;65.60
3736;DHT22;1883;48.202;16.310;2023-02-28T03:51:23;-0.10;65.60
3736;DHT22;1883;48.202;16.310;2023-02-28T03:53:54;-0.10;65.60
3736;DHT22;1883;48.202;16.310;2023-02-28T03:56:27;-0.10;65.50
3736;DHT22;1883;48.202;16.310;2023-02-28T03:59:00;-0.10;65.50
3736;DHT22;1883;48.202;16.310;2023-02-28T04:09:15;-0.10;65.40
3736;DHT22;1883;48.202;16.310;2023-02-28T04:11:44;-0.10;65.40
3736;DHT22;1883;48.202;16.310;2023-02-28T04:14:12;-0.10;65.30
3736;DHT22;1883;48.202;16.310;2023-02-28T04:16:41;-0.10;65.40
3736;DHT22;1883;48.202;16.310;2023-02-28T04:19:10;0.00;65.40
3736;DHT22;1883;48.202;16.310;2023-02-28T04:21:39;0.00;65.40
3736;DHT22;1883;48.202;16.310;2023-02-28T04:24:08;0.00;65.40
3736;DHT22;1883;48.202;16.310;2023-02-28T04:26:42;0.00;65.40
3736;DHT22;1883;48.202;16.310;2023-02-28T04:29:11;0.00;65.40
3736;DHT22;1883;48.202;16.310;2023-02-28T04:31:38;0.00;65.40
3736;DHT22;1883;48.202;16.310;2023-02-28T04:50:16;-0.10;65.30
3736;DHT22;1883;48.202;16.310;2023-02-28T04:52:43;-0.10;65.20
3736;DHT22;1883;48.202;16.310;2023-02-28T04:55:10;-0.10;65.20
3736;DHT22;1883;48.202;16.310;2023-02-28T04:57:37;-0.10;65.20
